sensor_id;sensor_type;location;lat;lon;timestamp;P1;durP1;ratioP1;P2;durP2;ratioP2
36799;SDS011;22752;51.960;5.886;2023-06-14T00:01:24;8.27;;;3.55;;
36799;SDS011;22752;51.960;5.886;2023-06-14T00:03:50;4.82;;;3.00;;
36799;SDS011;22752;51.960;5.886;2023-06-14T00:06:15;5.75;;;2.97;;
36799;SDS011;22752;51.960;5.886;2023-06-14T00:08:42;7.10;;;3.33;;
36799;SDS011;22752;51.960;5.886;2023-06-14T00:11:07;7.00;;;3.08;;
36799;SDS011;22752;51.960;5.886;2023-06-14T00:13:33;10.75;;;3.42;;
36799;SDS011;22752;51.960;5.886;2023-06-14T00:15:59;5.00;;;2.90;;
36799;SDS011;22752;51.960;5.886;2023-06-14T00:18:24;4.32;;;3.00;;
36799;SDS011;22752;51.960;5.886;2023-06-14T00:20:51;4.97;;;2.85;;
36799;SDS011;22752;51.960;5.886;2023-06-14T00:23:17;5.03;;;3.17;;
36799;SDS011;22752;51.960;5.886;2023-06-14T00:25:43;7.22;;;3.30;;
36799;SDS011;22752;51.960;5.886;2023-06-14T00:28:08;6.55;;;3.15;;
36799;SDS011;22752;51.960;5.886;2023-06-14T00:30:34;7.95;;;3.75;;
36799;SDS011;22752;51.960;5.886;2023-06-14T00:33:00;10.65;;;3.10;;
36799;SDS011;22752;51.960;5.886;2023-06-14T00:35:26;9.07;;;3.00;;
36799;SDS011;22752;51.960;5.886;2023-06-14T00:37:51;8.52;;;3.38;;
36799;SDS011;22752;51.960;5.886;2023-06-14T00:40:19;6.95;;;3.20;;
36799;SDS011;22752;51.960;5.886;2023-06-14T00:42:45;6.65;;;3.03;;
36799;SDS011;22752;51.960;5.886;2023-06-14T00:45:11;6.25;;;2.90;;
36799;SDS011;22752;51.960;5.886;2023-06-14T00:47:37;6.70;;;2.67;;
36799;SDS011;22752;51.960;5.886;2023-06-14T00:50:06;5.05;;;2.78;;
36799;SDS011;22752;51.960;5.886;2023-06-14T00:52:34;7.80;;;3.60;;
36799;SDS011;22752;51.960;5.886;2023-06-14T00:54:59;7.55;;;3.10;;
36799;SDS011;22752;51.960;5.886;2023-06-14T00:57:26;7.03;;;3.03;;
36799;SDS011;22752;51.960;5.886;2023-06-14T00:59:52;7.45;;;2.95;;
36799;SDS011;22752;51.960;5.886;2023-06-14T01:02:19;5.18;;;2.80;;
36799;SDS011;22752;51.960;5.886;2023-06-14T01:04:46;5.03;;;2.85;;
36799;SDS011;22752;51.960;5.886;2023-06-14T01:07:30;8.27;;;3.05;;
36799;SDS011;22752;51.960;5.886;2023-06-14T01:15:35;5.68;;;3.22;;
36799;SDS011;22752;51.960;5.886;2023-06-14T01:18:03;5.40;;;3.00;;
36799;SDS011;22752;51.960;5.886;2023-06-14T01:20:30;8.50;;;2.75;;
36799;SDS011;22752;51.960;5.886;2023-06-14T01:22:57;8.35;;;2.72;;
36799;SDS011;22752;51.960;5.886;2023-06-14T01:25:24;3.78;;;2.72;;
36799;SDS011;22752;51.960;5.886;2023-06-14T01:27:50;8.07;;;3.08;;
36799;SDS011;22752;51.960;5.886;2023-06-14T01:30:22;5.72;;;2.80;;
36799;SDS011;22752;51.960;5.886;2023-06-14T01:32:50;8.50;;;3.10;;
36799;SDS011;22752;51.960;5.886;2023-06-14T01:35:17;3.45;;;2.50;;
36799;SDS011;22752;51.960;5.886;2023-06-14T01:37:43;6.43;;;3.00;;
36799;SDS011;22752;51.960;5.886;2023-06-14T01:40:10;7.70;;;2.60;;
36799;SDS011;22752;51.960;5.886;2023-06-14T01:42:38;9.65;;;2.58;;
36799;SDS011;22752;51.960;5.886;2023-06-14T01:45:04;5.68;;;3.03;;
36799;SDS011;22752;51.960;5.886;2023-06-14T01:47:31;8.27;;;3.00;;
36799;SDS011;22752;51.960;5.886;2023-06-14T01:49:57;6.68;;;3.00;;
36799;SDS011;22752;51.960;5.886;2023-06-14T01:52:23;8.55;;;2.70;;
36799;SDS011;22752;51.960;5.886;2023-06-14T01:54:49;4.00;;;2.75;;
36799;SDS011;22752;51.960;5.886;2023-06-14T01:57:15;5.38;;;2.70;;
36799;SDS011;22752;51.960;5.886;2023-06-14T01:59:41;5.80;;;2.90;;
36799;SDS011;22752;51.960;5.886;2023-06-14T02:02:07;8.68;;;3.00;;
36799;SDS011;22752;51.960;5.886;2023-06-14T02:04:33;5.22;;;2.22;;
36799;SDS011;22752;51.960;5.886;2023-06-14T02:06:59;5.65;;;2.67;;
36799;SDS011;22752;51.960;5.886;2023-06-14T02:09:25;7.88;;;2.83;;
36799;SDS011;22752;51.960;5.886;2023-06-14T02:11:50;6.18;;;2.58;;
36799;SDS011;22752;51.960;5.886;2023-06-14T02:14:16;7.57;;;2.80;;
36799;SDS011;22752;51.960;5.886;2023-06-14T02:16:42;7.30;;;2.72;;
36799;SDS011;22752;51.960;5.886;2023-06-14T02:19:14;10.68;;;3.08;;
36799;SDS011;22752;51.960;5.886;2023-06-14T02:21:44;4.50;;;2.70;;
36799;SDS011;22752;51.960;5.886;2023-06-14T02:24:10;6.63;;;2.85;;
36799;SDS011;22752;51.960;5.886;2023-06-14T02:26:36;4.60;;;2.70;;
36799;SDS011;22752;51.960;5.886;2023-06-14T02:29:03;8.60;;;3.17;;
36799;SDS011;22752;51.960;5.886;2023-06-14T02:31:30;4.10;;;2.72;;
36799;SDS011;22752;51.960;5.886;2023-06-14T02:34:00;4.07;;;2.35;;
36799;SDS011;22752;51.960;5.886;2023-06-14T02:36:25;5.15;;;2.35;;
36799;SDS011;22752;51.960;5.886;2023-06-14T02:38:52;3.78;;;2.53;;
36799;SDS011;22752;51.960;5.886;2023-06-14T02:41:19;4.40;;;2.15;;
36799;SDS011;22752;51.960;5.886;2023-06-14T02:43:44;7.78;;;2.70;;
36799;SDS011;22752;51.960;5.886;2023-06-14T02:46:10;10.73;;;3.10;;
36799;SDS011;22752;51.960;5.886;2023-06-14T02:48:36;5.32;;;2.40;;
36799;SDS011;22752;51.960;5.886;2023-06-14T02:51:02;9.82;;;2.63;;
36799;SDS011;22752;51.960;5.886;2023-06-14T02:53:27;7.45;;;2.60;;
36799;SDS011;22752;51.960;5.886;2023-06-14T02:55:53;4.70;;;3.10;;
36799;SDS011;22752;51.960;5.886;2023-06-14T02:58:20;9.13;;;2.53;;
36799;SDS011;22752;51.960;5.886;2023-06-14T03:00:46;7.15;;;3.00;;
36799;SDS011;22752;51.960;5.886;2023-06-14T03:03:11;5.43;;;2.80;;
36799;SDS011;22752;51.960;5.886;2023-06-14T03:05:43;6.00;;;2.70;;
36799;SDS011;22752;51.960;5.886;2023-06-14T03:08:12;4.03;;;2.17;;
36799;SDS011;22752;51.960;5.886;2023-06-14T03:10:45;4.88;;;3.03;;
36799;SDS011;22752;51.960;5.886;2023-06-14T03:13:11;4.75;;;2.78;;
36799;SDS011;22752;51.960;5.886;2023-06-14T03:15:37;7.60;;;2.83;;
36799;SDS011;22752;51.960;5.886;2023-06-14T03:18:03;5.90;;;2.83;;
36799;SDS011;22752;51.960;5.886;2023-06-14T03:20:29;7.50;;;2.70;;
36799;SDS011;22752;51.960;5.886;2023-06-14T03:22:57;6.80;;;2.70;;
36799;SDS011;22752;51.960;5.886;2023-06-14T03:25:24;7.00;;;2.83;;
36799;SDS011;22752;51.960;5.886;2023-06-14T03:27:50;7.20;;;2.88;;
36799;SDS011;22752;51.960;5.886;2023-06-14T03:30:16;6.13;;;2.70;;
36799;SDS011;22752;51.960;5.886;2023-06-14T03:32:42;5.97;;;2.67;;
36799;SDS011;22752;51.960;5.886;2023-06-14T03:35:08;4.90;;;2.78;;
36799;SDS011;22752;51.960;5.886;2023-06-14T03:37:41;3.88;;;2.53;;
36799;SDS011;22752;51.960;5.886;2023-06-14T03:40:08;7.32;;;2.60;;
36799;SDS011;22752;51.960;5.886;2023-06-14T03:42:34;8.82;;;2.80;;
36799;SDS011;22752;51.960;5.886;2023-06-14T03:44:59;5.57;;;2.92;;
36799;SDS011;22752;51.960;5.886;2023-06-14T03:47:25;6.70;;;2.80;;
36799;SDS011;22752;51.960;5.886;2023-06-14T03:49:52;4.13;;;2.63;;
36799;SDS011;22752;51.960;5.886;2023-06-14T03:52:17;4.57;;;2.45;;
36799;SDS011;22752;51.960;5.886;2023-06-14T03:54:43;5.75;;;2.40;;
36799;SDS011;22752;51.960;5.886;2023-06-14T03:57:09;11.57;;;2.92;;
36799;SDS011;22752;51.960;5.886;2023-06-14T03:59:35;9.45;;;2.67;;
36799;SDS011;22752;51.960;5.886;2023-06-14T04:02:02;8.95;;;2.90;;
36799;SDS011;22752;51.960;5.886;2023-06-14T04:04:27;4.82;;;2.63;;
36799;SDS011;22752;51.960;5.886;2023-06-14T04:06:54;5.15;;;2.42;;
36799;SDS011;22752;51.960;5.886;2023-06-14T04:09:21;5.15;;;2.72;;
36799;SDS011;22752;51.960;5.886;2023-06-14T04:11:49;5.57;;;2.53;;
36799;SDS011;22752;51.960;5.886;2023-06-14T04:14:16;9.90;;;3.05;;
36799;SDS011;22752;51.960;5.886;2023-06-14T04:16:43;4.95;;;2.78;;
36799;SDS011;22752;51.960;5.886;2023-06-14T04:19:09;8.80;;;3.03;;
36799;SDS011;22752;51.960;5.886;2023-06-14T04:21:34;5.97;;;2.92;;
36799;SDS011;22752;51.960;5.886;2023-06-14T04:24:00;3.75;;;2.67;;
36799;SDS011;22752;51.960;5.886;2023-06-14T04:26:27;7.57;;;2.88;;
36799;SDS011;22752;51.960;5.886;2023-06-14T04:28:54;4.55;;;2.65;;
36799;SDS011;22752;51.960;5.886;2023-06-14T04:31:27;4.05;;;2.60;;
36799;SDS011;22752;51.960;5.886;2023-06-14T04:33:54;4.88;;;2.80;;
36799;SDS011;22752;51.960;5.886;2023-06-14T04:36:20;5.57;;;3.00;;
36799;SDS011;22752;51.960;5.886;2023-06-14T04:38:47;5.88;;;2.83;;
36799;SDS011;22752;51.960;5.886;2023-06-14T04:41:14;5.47;;;2.60;;
36799;SDS011;22752;51.960;5.886;2023-06-14T04:43:41;5.68;;;2.72;;
36799;SDS011;22752;51.960;5.886;2023-06-14T04:46:08;5.70;;;2.75;;
36799;SDS011;22752;51.960;5.886;2023-06-14T04:48:35;3.60;;;2.58;;
36799;SDS011;22752;51.960;5.886;2023-06-14T04:51:00;6.93;;;2.90;;
36799;SDS011;22752;51.960;5.886;2023-06-14T04:53:28;4.13;;;2.85;;
36799;SDS011;22752;51.960;5.886;2023-06-14T04:55:54;6.55;;;2.63;;
36799;SDS011;22752;51.960;5.886;2023-06-14T04:58:20;3.85;;;2.50;;
36799;SDS011;22752;51.960;5.886;2023-06-14T05:00:46;5.47;;;2.80;;
36799;SDS011;22752;51.960;5.886;2023-06-14T05:03:11;5.22;;;2.88;;
36799;SDS011;22752;51.960;5.886;2023-06-14T05:05:38;16.50;;;2.60;;
36799;SDS011;22752;51.960;5.886;2023-06-14T05:08:05;3.22;;;2.38;;
36799;SDS011;22752;51.960;5.886;2023-06-14T05:10:30;3.85;;;2.50;;
36799;SDS011;22752;51.960;5.886;2023-06-14T05:12:56;7.10;;;2.80;;
36799;SDS011;22752;51.960;5.886;2023-06-14T05:15:22;10.18;;;2.97;;
36799;SDS011;22752;51.960;5.886;2023-06-14T05:17:50;6.57;;;2.70;;
36799;SDS011;22752;51.960;5.886;2023-06-14T05:20:20;7.30;;;2.80;;
36799;SDS011;22752;51.960;5.886;2023-06-14T05:22:50;6.80;;;2.50;;
36799;SDS011;22752;51.960;5.886;2023-06-14T05:25:18;5.90;;;2.70;;
36799;SDS011;22752;51.960;5.886;2023-06-14T05:27:46;5.25;;;2.70;;
36799;SDS011;22752;51.960;5.886;2023-06-14T05:30:13;6.60;;;3.33;;
36799;SDS011;22752;51.960;5.886;2023-06-14T05:32:40;3.47;;;2.40;;
36799;SDS011;22752;51.960;5.886;2023-06-14T05:35:06;7.75;;;2.80;;
36799;SDS011;22752;51.960;5.886;2023-06-14T05:37:32;5.05;;;2.70;;
36799;SDS011;22752;51.960;5.886;2023-06-14T05:39:58;7.05;;;2.75;;
36799;SDS011;22752;51.960;5.886;2023-06-14T05:42:23;6.28;;;3.03;;
36799;SDS011;22752;51.960;5.886;2023-06-14T05:44:49;6.55;;;2.45;;
36799;SDS011;22752;51.960;5.886;2023-06-14T05:47:14;5.78;;;2.50;;
36799;SDS011;22752;51.960;5.886;2023-06-14T05:49:40;4.75;;;2.33;;
36799;SDS011;22752;51.960;5.886;2023-06-14T05:52:06;3.95;;;2.80;;
36799;SDS011;22752;51.960;5.886;2023-06-14T05:54:32;2.50;;;2.30;;
36799;SDS011;22752;51.960;5.886;2023-06-14T05:56:58;8.73;;;2.90;;
36799;SDS011;22752;51.960;5.886;2023-06-14T05:59:29;5.22;;;2.60;;
36799;SDS011;22752;51.960;5.886;2023-06-14T06:01:54;7.82;;;3.10;;
36799;SDS011;22752;51.960;5.886;2023-06-14T06:04:20;9.88;;;3.97;;
36799;SDS011;22752;51.960;5.886;2023-06-14T06:06:46;9.30;;;2.83;;
36799;SDS011;22752;51.960;5.886;2023-06-14T06:09:12;8.98;;;3.15;;
36799;SDS011;22752;51.960;5.886;2023-06-14T06:11:39;10.65;;;3.15;;
36799;SDS011;22752;51.960;5.886;2023-06-14T06:14:05;5.57;;;2.70;;
36799;SDS011;22752;51.960;5.886;2023-06-14T06:16:31;3.95;;;2.63;;
36799;SDS011;22752;51.960;5.886;2023-06-14T06:18:56;11.07;;;2.80;;
36799;SDS011;22752;51.960;5.886;2023-06-14T06:21:22;4.93;;;2.70;;
36799;SDS011;22752;51.960;5.886;2023-06-14T06:23:48;10.05;;;2.97;;
36799;SDS011;22752;51.960;5.886;2023-06-14T06:26:13;4.57;;;2.40;;
36799;SDS011;22752;51.960;5.886;2023-06-14T06:28:39;7.60;;;3.15;;
36799;SDS011;22752;51.960;5.886;2023-06-14T06:31:05;5.13;;;2.50;;
36799;SDS011;22752;51.960;5.886;2023-06-14T06:33:31;5.93;;;2.72;;
36799;SDS011;22752;51.960;5.886;2023-06-14T06:35:56;6.07;;;2.80;;
36799;SDS011;22752;51.960;5.886;2023-06-14T06:38:22;5.70;;;3.05;;
36799;SDS011;22752;51.960;5.886;2023-06-14T06:40:47;7.78;;;2.88;;
36799;SDS011;22752;51.960;5.886;2023-06-14T06:43:13;6.97;;;2.70;;
36799;SDS011;22752;51.960;5.886;2023-06-14T06:45:42;6.35;;;2.72;;
36799;SDS011;22752;51.960;5.886;2023-06-14T06:48:08;4.35;;;2.70;;
36799;SDS011;22752;51.960;5.886;2023-06-14T06:50:35;6.25;;;2.55;;
36799;SDS011;22752;51.960;5.886;2023-06-14T06:53:01;6.00;;;2.67;;
36799;SDS011;22752;51.960;5.886;2023-06-14T06:55:27;7.65;;;2.67;;
36799;SDS011;22752;51.960;5.886;2023-06-14T06:57:53;5.25;;;2.70;;
36799;SDS011;22752;51.960;5.886;2023-06-14T07:00:19;5.13;;;2.50;;
36799;SDS011;22752;51.960;5.886;2023-06-14T07:02:46;6.68;;;2.35;;
36799;SDS011;22752;51.960;5.886;2023-06-14T07:05:11;3.78;;;2.60;;
36799;SDS011;22752;51.960;5.886;2023-06-14T07:07:37;6.47;;;2.72;;
36799;SDS011;22752;51.960;5.886;2023-06-14T07:10:03;7.72;;;2.60;;
36799;SDS011;22752;51.960;5.886;2023-06-14T07:12:30;6.22;;;2.40;;
36799;SDS011;22752;51.960;5.886;2023-06-14T07:14:58;3.97;;;2.53;;
36799;SDS011;22752;51.960;5.886;2023-06-14T07:17:24;8.57;;;3.42;;
36799;SDS011;22752;51.960;5.886;2023-06-14T07:19:50;8.00;;;2.67;;
36799;SDS011;22752;51.960;5.886;2023-06-14T07:22:16;5.68;;;2.30;;
36799;SDS011;22752;51.960;5.886;2023-06-14T07:24:42;3.35;;;2.42;;
36799;SDS011;22752;51.960;5.886;2023-06-14T07:27:08;4.97;;;3.15;;
36799;SDS011;22752;51.960;5.886;2023-06-14T07:29:35;3.30;;;2.67;;
36799;SDS011;22752;51.960;5.886;2023-06-14T07:32:01;5.22;;;2.88;;
36799;SDS011;22752;51.960;5.886;2023-06-14T07:34:27;4.50;;;2.50;;
36799;SDS011;22752;51.960;5.886;2023-06-14T07:36:52;5.95;;;2.72;;
36799;SDS011;22752;51.960;5.886;2023-06-14T07:39:19;4.00;;;2.00;;
36799;SDS011;22752;51.960;5.886;2023-06-14T07:41:44;6.35;;;2.38;;
36799;SDS011;22752;51.960;5.886;2023-06-14T07:44:10;3.58;;;1.80;;
36799;SDS011;22752;51.960;5.886;2023-06-14T07:46:37;3.25;;;1.80;;
36799;SDS011;22752;51.960;5.886;2023-06-14T07:49:03;7.55;;;1.98;;
36799;SDS011;22752;51.960;5.886;2023-06-14T07:51:29;7.47;;;2.28;;
36799;SDS011;22752;51.960;5.886;2023-06-14T07:53:54;6.32;;;1.90;;
36799;SDS011;22752;51.960;5.886;2023-06-14T07:56:21;2.95;;;2.15;;
36799;SDS011;22752;51.960;5.886;2023-06-14T07:58:48;2.28;;;1.70;;
36799;SDS011;22752;51.960;5.886;2023-06-14T08:01:13;3.92;;;1.75;;
36799;SDS011;22752;51.960;5.886;2023-06-14T08:03:40;2.55;;;1.92;;
36799;SDS011;22752;51.960;5.886;2023-06-14T08:06:06;3.30;;;1.65;;
36799;SDS011;22752;51.960;5.886;2023-06-14T08:08:32;3.35;;;1.70;;
36799;SDS011;22752;51.960;5.886;2023-06-14T08:10:58;4.72;;;1.60;;
36799;SDS011;22752;51.960;5.886;2023-06-14T08:13:23;3.22;;;1.60;;
36799;SDS011;22752;51.960;5.886;2023-06-14T08:15:49;2.78;;;1.45;;
36799;SDS011;22752;51.960;5.886;2023-06-14T08:18:15;2.85;;;1.40;;
36799;SDS011;22752;51.960;5.886;2023-06-14T08:20:41;5.78;;;1.60;;
36799;SDS011;22752;51.960;5.886;2023-06-14T08:23:06;2.75;;;1.50;;
36799;SDS011;22752;51.960;5.886;2023-06-14T08:25:33;2.42;;;1.70;;
36799;SDS011;22752;51.960;5.886;2023-06-14T08:27:58;3.25;;;1.75;;
36799;SDS011;22752;51.960;5.886;2023-06-14T08:30:25;5.28;;;1.70;;
36799;SDS011;22752;51.960;5.886;2023-06-14T08:32:50;2.10;;;1.50;;
36799;SDS011;22752;51.960;5.886;2023-06-14T08:35:16;4.90;;;1.70;;
36799;SDS011;22752;51.960;5.886;2023-06-14T08:37:43;3.90;;;2.00;;
36799;SDS011;22752;51.960;5.886;2023-06-14T08:40:13;2.40;;;1.77;;
36799;SDS011;22752;51.960;5.886;2023-06-14T08:42:48;3.15;;;1.92;;
36799;SDS011;22752;51.960;5.886;2023-06-14T08:45:16;2.08;;;1.80;;
36799;SDS011;22752;51.960;5.886;2023-06-14T08:47:42;2.20;;;1.70;;
36799;SDS011;22752;51.960;5.886;2023-06-14T08:50:08;2.35;;;1.77;;
36799;SDS011;22752;51.960;5.886;2023-06-14T08:52:36;3.08;;;1.70;;
36799;SDS011;22752;51.960;5.886;2023-06-14T08:55:10;4.82;;;1.80;;
36799;SDS011;22752;51.960;5.886;2023-06-14T08:57:36;3.03;;;1.77;;
36799;SDS011;22752;51.960;5.886;2023-06-14T09:00:04;3.47;;;1.98;;
36799;SDS011;22752;51.960;5.886;2023-06-14T09:02:37;2.35;;;1.80;;
36799;SDS011;22752;51.960;5.886;2023-06-14T09:05:03;3.72;;;1.90;;
36799;SDS011;22752;51.960;5.886;2023-06-14T09:07:29;5.72;;;1.92;;
36799;SDS011;22752;51.960;5.886;2023-06-14T09:10:07;3.05;;;1.80;;
36799;SDS011;22752;51.960;5.886;2023-06-14T09:12:38;3.45;;;2.00;;
36799;SDS011;22752;51.960;5.886;2023-06-14T09:15:05;3.17;;;1.80;;
36799;SDS011;22752;51.960;5.886;2023-06-14T09:17:33;4.93;;;1.70;;
36799;SDS011;22752;51.960;5.886;2023-06-14T09:20:05;3.58;;;1.60;;
36799;SDS011;22752;51.960;5.886;2023-06-14T09:22:36;3.08;;;1.80;;
36799;SDS011;22752;51.960;5.886;2023-06-14T09:25:03;6.47;;;1.90;;
36799;SDS011;22752;51.960;5.886;2023-06-14T09:27:30;3.55;;;1.80;;
36799;SDS011;22752;51.960;5.886;2023-06-14T09:29:56;4.85;;;1.70;;
36799;SDS011;22752;51.960;5.886;2023-06-14T09:32:22;1.73;;;1.58;;
36799;SDS011;22752;51.960;5.886;2023-06-14T09:34:48;3.30;;;1.70;;
36799;SDS011;22752;51.960;5.886;2023-06-14T09:37:26;3.30;;;1.85;;
36799;SDS011;22752;51.960;5.886;2023-06-14T09:39:55;2.55;;;1.63;;
36799;SDS011;22752;51.960;5.886;2023-06-14T09:42:21;2.10;;;1.70;;
36799;SDS011;22752;51.960;5.886;2023-06-14T09:44:50;2.70;;;1.50;;
36799;SDS011;22752;51.960;5.886;2023-06-14T09:47:17;4.68;;;1.63;;
36799;SDS011;22752;51.960;5.886;2023-06-14T09:49:43;3.25;;;1.77;;
36799;SDS011;22752;51.960;5.886;2023-06-14T09:52:17;2.70;;;1.70;;
36799;SDS011;22752;51.960;5.886;2023-06-14T09:54:44;2.50;;;1.60;;
36799;SDS011;22752;51.960;5.886;2023-06-14T09:57:12;2.60;;;1.70;;
36799;SDS011;22752;51.960;5.886;2023-06-14T09:59:43;2.58;;;1.50;;
36799;SDS011;22752;51.960;5.886;2023-06-14T10:02:29;3.60;;;1.80;;
36799;SDS011;22752;51.960;5.886;2023-06-14T10:07:26;2.85;;;1.80;;
36799;SDS011;22752;51.960;5.886;2023-06-14T10:09:56;2.17;;;1.67;;
36799;SDS011;22752;51.960;5.886;2023-06-14T10:12:23;2.42;;;1.73;;
36799;SDS011;22752;51.960;5.886;2023-06-14T10:14:49;2.67;;;1.83;;
36799;SDS011;22752;51.960;5.886;2023-06-14T10:17:23;2.30;;;1.58;;
36799;SDS011;22752;51.960;5.886;2023-06-14T10:20:25;1.73;;;1.60;;
36799;SDS011;22752;51.960;5.886;2023-06-14T10:23:21;3.78;;;1.70;;
36799;SDS011;22752;51.960;5.886;2023-06-14T10:25:58;1.77;;;1.52;;
36799;SDS011;22752;51.960;5.886;2023-06-14T10:28:25;2.58;;;1.45;;
36799;SDS011;22752;51.960;5.886;2023-06-14T10:31:24;2.40;;;1.45;;
36799;SDS011;22752;51.960;5.886;2023-06-14T10:33:50;2.72;;;1.50;;
36799;SDS011;22752;51.960;5.886;2023-06-14T10:41:55;5.75;;;1.80;;
36799;SDS011;22752;51.960;5.886;2023-06-14T10:46:48;4.68;;;1.48;;
36799;SDS011;22752;51.960;5.886;2023-06-14T10:49:20;3.05;;;1.60;;
36799;SDS011;22752;51.960;5.886;2023-06-14T10:52:12;4.18;;;1.60;;
36799;SDS011;22752;51.960;5.886;2023-06-14T10:57:29;3.78;;;1.75;;
36799;SDS011;22752;51.960;5.886;2023-06-14T10:59:56;7.40;;;1.67;;
36799;SDS011;22752;51.960;5.886;2023-06-14T11:05:08;3.70;;;1.95;;
36799;SDS011;22752;51.960;5.886;2023-06-14T11:07:58;6.88;;;1.60;;
36799;SDS011;22752;51.960;5.886;2023-06-14T11:10:47;7.53;;;1.70;;
36799;SDS011;22752;51.960;5.886;2023-06-14T11:13:15;2.63;;;1.90;;
36799;SDS011;22752;51.960;5.886;2023-06-14T11:15:45;1.67;;;1.55;;
36799;SDS011;22752;51.960;5.886;2023-06-14T11:18:13;4.13;;;1.80;;
36799;SDS011;22752;51.960;5.886;2023-06-14T11:20:39;6.70;;;1.92;;
36799;SDS011;22752;51.960;5.886;2023-06-14T11:23:05;3.35;;;1.55;;
36799;SDS011;22752;51.960;5.886;2023-06-14T11:25:31;2.72;;;1.60;;
36799;SDS011;22752;51.960;5.886;2023-06-14T11:27:56;2.90;;;2.08;;
36799;SDS011;22752;51.960;5.886;2023-06-14T11:30:23;3.92;;;1.73;;
36799;SDS011;22752;51.960;5.886;2023-06-14T11:32:51;4.28;;;1.77;;
36799;SDS011;22752;51.960;5.886;2023-06-14T11:35:18;1.73;;;1.63;;
36799;SDS011;22752;51.960;5.886;2023-06-14T11:37:46;2.47;;;1.80;;
36799;SDS011;22752;51.960;5.886;2023-06-14T11:40:14;6.28;;;1.70;;
36799;SDS011;22752;51.960;5.886;2023-06-14T11:42:40;1.70;;;1.58;;
36799;SDS011;22752;51.960;5.886;2023-06-14T11:45:07;5.38;;;1.77;;
36799;SDS011;22752;51.960;5.886;2023-06-14T11:47:34;1.70;;;1.55;;
36799;SDS011;22752;51.960;5.886;2023-06-14T11:50:01;2.40;;;1.70;;
36799;SDS011;22752;51.960;5.886;2023-06-14T11:52:31;2.33;;;1.70;;
36799;SDS011;22752;51.960;5.886;2023-06-14T11:54:57;2.47;;;1.60;;
36799;SDS011;22752;51.960;5.886;2023-06-14T11:57:23;5.22;;;1.90;;
36799;SDS011;22752;51.960;5.886;2023-06-14T11:59:49;7.50;;;2.00;;
36799;SDS011;22752;51.960;5.886;2023-06-14T12:02:16;7.18;;;1.98;;
36799;SDS011;22752;51.960;5.886;2023-06-14T12:04:42;2.30;;;1.45;;
36799;SDS011;22752;51.960;5.886;2023-06-14T12:09:42;3.20;;;1.83;;
36799;SDS011;22752;51.960;5.886;2023-06-14T12:12:34;4.47;;;1.52;;
36799;SDS011;22752;51.960;5.886;2023-06-14T12:15:02;3.28;;;1.70;;
36799;SDS011;22752;51.960;5.886;2023-06-14T12:17:33;2.67;;;1.85;;
36799;SDS011;22752;51.960;5.886;2023-06-14T12:20:04;5.40;;;1.80;;
36799;SDS011;22752;51.960;5.886;2023-06-14T12:22:39;6.25;;;1.70;;
36799;SDS011;22752;51.960;5.886;2023-06-14T12:25:22;3.72;;;1.48;;
36799;SDS011;22752;51.960;5.886;2023-06-14T12:27:55;5.93;;;1.63;;
36799;SDS011;22752;51.960;5.886;2023-06-14T12:30:21;1.95;;;1.40;;
36799;SDS011;22752;51.960;5.886;2023-06-14T12:32:47;3.50;;;1.58;;
36799;SDS011;22752;51.960;5.886;2023-06-14T12:35:13;4.50;;;1.50;;
36799;SDS011;22752;51.960;5.886;2023-06-14T12:37:40;3.05;;;1.75;;
36799;SDS011;22752;51.960;5.886;2023-06-14T12:40:05;3.35;;;1.70;;
36799;SDS011;22752;51.960;5.886;2023-06-14T12:42:32;5.40;;;1.30;;
36799;SDS011;22752;51.960;5.886;2023-06-14T12:44:59;5.32;;;1.52;;
36799;SDS011;22752;51.960;5.886;2023-06-14T12:47:24;3.92;;;1.50;;
36799;SDS011;22752;51.960;5.886;2023-06-14T12:49:50;3.47;;;1.70;;
36799;SDS011;22752;51.960;5.886;2023-06-14T12:52:16;3.67;;;1.50;;
36799;SDS011;22752;51.960;5.886;2023-06-14T12:54:42;1.92;;;1.60;;
36799;SDS011;22752;51.960;5.886;2023-06-14T12:57:08;2.20;;;1.63;;
36799;SDS011;22752;51.960;5.886;2023-06-14T12:59:34;1.75;;;1.50;;
36799;SDS011;22752;51.960;5.886;2023-06-14T13:02:16;1.80;;;1.10;;
36799;SDS011;22752;51.960;5.886;2023-06-14T13:04:42;3.03;;;1.50;;
36799;SDS011;22752;51.960;5.886;2023-06-14T13:07:08;3.92;;;1.33;;
36799;SDS011;22752;51.960;5.886;2023-06-14T13:09:35;1.77;;;1.50;;
36799;SDS011;22752;51.960;5.886;2023-06-14T13:12:01;1.85;;;1.30;;
36799;SDS011;22752;51.960;5.886;2023-06-14T13:14:27;3.83;;;1.40;;
36799;SDS011;22752;51.960;5.886;2023-06-14T13:16:53;3.03;;;1.30;;
36799;SDS011;22752;51.960;5.886;2023-06-14T13:19:20;2.88;;;1.15;;
36799;SDS011;22752;51.960;5.886;2023-06-14T13:21:46;4.30;;;1.33;;
36799;SDS011;22752;51.960;5.886;2023-06-14T13:24:11;1.20;;;1.10;;
36799;SDS011;22752;51.960;5.886;2023-06-14T13:26:37;3.35;;;1.30;;
36799;SDS011;22752;51.960;5.886;2023-06-14T13:29:03;5.68;;;1.30;;
36799;SDS011;22752;51.960;5.886;2023-06-14T13:31:28;3.05;;;1.17;;
36799;SDS011;22752;51.960;5.886;2023-06-14T13:33:54;3.85;;;1.35;;
36799;SDS011;22752;51.960;5.886;2023-06-14T13:36:20;1.95;;;1.33;;
36799;SDS011;22752;51.960;5.886;2023-06-14T13:38:46;3.25;;;1.45;;
36799;SDS011;22752;51.960;5.886;2023-06-14T13:41:11;6.40;;;1.55;;
36799;SDS011;22752;51.960;5.886;2023-06-14T13:43:37;1.13;;;1.02;;
36799;SDS011;22752;51.960;5.886;2023-06-14T13:46:03;1.23;;;1.13;;
36799;SDS011;22752;51.960;5.886;2023-06-14T13:48:28;1.42;;;1.20;;
36799;SDS011;22752;51.960;5.886;2023-06-14T13:50:54;2.97;;;1.00;;
36799;SDS011;22752;51.960;5.886;2023-06-14T13:53:19;1.95;;;0.93;;
36799;SDS011;22752;51.960;5.886;2023-06-14T13:55:45;1.40;;;1.17;;
36799;SDS011;22752;51.960;5.886;2023-06-14T13:58:11;2.35;;;1.20;;
36799;SDS011;22752;51.960;5.886;2023-06-14T14:00:37;2.17;;;1.20;;
36799;SDS011;22752;51.960;5.886;2023-06-14T14:03:05;3.40;;;1.05;;
36799;SDS011;22752;51.960;5.886;2023-06-14T14:05:31;2.55;;;1.25;;
36799;SDS011;22752;51.960;5.886;2023-06-14T14:07:57;4.05;;;1.27;;
36799;SDS011;22752;51.960;5.886;2023-06-14T14:10:24;2.78;;;1.00;;
36799;SDS011;22752;51.960;5.886;2023-06-14T14:12:50;2.85;;;1.40;;
36799;SDS011;22752;51.960;5.886;2023-06-14T14:15:16;1.55;;;1.30;;
36799;SDS011;22752;51.960;5.886;2023-06-14T14:17:42;1.35;;;1.25;;
36799;SDS011;22752;51.960;5.886;2023-06-14T14:20:08;2.90;;;1.42;;
36799;SDS011;22752;51.960;5.886;2023-06-14T14:22:34;1.77;;;1.20;;
36799;SDS011;22752;51.960;5.886;2023-06-14T14:25:00;2.72;;;1.10;;
36799;SDS011;22752;51.960;5.886;2023-06-14T14:27:26;3.63;;;1.30;;
36799;SDS011;22752;51.960;5.886;2023-06-14T14:29:52;1.92;;;1.00;;
36799;SDS011;22752;51.960;5.886;2023-06-14T14:32:18;4.88;;;1.40;;
36799;SDS011;22752;51.960;5.886;2023-06-14T14:34:43;2.90;;;1.10;;
36799;SDS011;22752;51.960;5.886;2023-06-14T14:37:09;1.73;;;1.20;;
36799;SDS011;22752;51.960;5.886;2023-06-14T14:39:36;1.83;;;1.30;;
36799;SDS011;22752;51.960;5.886;2023-06-14T14:42:02;5.35;;;1.40;;
36799;SDS011;22752;51.960;5.886;2023-06-14T14:44:27;1.55;;;1.30;;
36799;SDS011;22752;51.960;5.886;2023-06-14T14:46:53;2.70;;;1.33;;
36799;SDS011;22752;51.960;5.886;2023-06-14T14:49:19;2.53;;;1.50;;
36799;SDS011;22752;51.960;5.886;2023-06-14T14:51:45;1.30;;;1.20;;
36799;SDS011;22752;51.960;5.886;2023-06-14T14:54:13;1.30;;;1.20;;
36799;SDS011;22752;51.960;5.886;2023-06-14T14:56:41;3.33;;;1.30;;
36799;SDS011;22752;51.960;5.886;2023-06-14T14:59:07;2.65;;;1.35;;
36799;SDS011;22752;51.960;5.886;2023-06-14T15:01:33;1.75;;;1.02;;
36799;SDS011;22752;51.960;5.886;2023-06-14T15:03:58;1.83;;;1.20;;
36799;SDS011;22752;51.960;5.886;2023-06-14T15:06:24;2.92;;;1.30;;
36799;SDS011;22752;51.960;5.886;2023-06-14T15:08:50;3.53;;;1.38;;
36799;SDS011;22752;51.960;5.886;2023-06-14T15:11:15;1.95;;;1.30;;
36799;SDS011;22752;51.960;5.886;2023-06-14T15:13:41;2.38;;;1.33;;